createdAt,value
2023-05-19T00:00:59.007Z,1.83
2023-05-19T00:03:25.637Z,2.42
2023-05-19T00:05:53.928Z,2.25
2023-05-19T00:08:22.489Z,2.27
2023-05-19T00:10:49.213Z,2.03
2023-05-19T00:13:15.952Z,2.65
2023-05-19T00:15:42.554Z,2.38
2023-05-19T00:18:09.065Z,2.30
2023-05-19T00:20:35.580Z,2.47
2023-05-19T00:23:01.996Z,2.10
2023-05-19T00:25:28.397Z,2.20
2023-05-19T00:27:54.800Z,2.17
2023-05-19T00:30:22.797Z,2.15
2023-05-19T00:32:49.250Z,1.87
2023-05-19T00:35:16.496Z,2.28
2023-05-19T00:37:42.874Z,2.50
2023-05-19T00:40:10.169Z,2.20
2023-05-19T00:42:36.790Z,1.92
2023-05-19T00:45:03.373Z,2.77
2023-05-19T00:49:56.391Z,1.90
2023-05-19T00:52:23.176Z,2.00
2023-05-19T00:54:51.228Z,2.55
2023-05-19T00:57:17.994Z,2.17
2023-05-19T00:59:44.466Z,2.17
2023-05-19T01:02:10.836Z,2.67
2023-05-19T01:04:39.434Z,2.70
2023-05-19T01:07:06.540Z,2.67
2023-05-19T01:09:33.491Z,1.73
2023-05-19T01:12:01.428Z,2.05
2023-05-19T01:14:28.745Z,2.50
2023-05-19T01:17:08.073Z,2.45
2023-05-19T01:19:46.552Z,2.50
2023-05-19T01:22:27.521Z,2.13
2023-05-19T01:25:08.516Z,2.25
2023-05-19T01:27:53.742Z,2.55
2023-05-19T01:30:39.059Z,2.60
2023-05-19T01:33:08.593Z,2.20
2023-05-19T01:35:37.055Z,2.23
2023-05-19T01:38:07.793Z,2.13
2023-05-19T01:40:35.435Z,2.03
2023-05-19T01:43:02.622Z,2.63
2023-05-19T01:45:31.450Z,2.42
2023-05-19T01:48:01.269Z,1.90
2023-05-19T01:50:28.342Z,2.22
2023-05-19T01:52:55.273Z,2.63
2023-05-19T01:55:23.748Z,2.30
2023-05-19T01:57:58.594Z,2.78
2023-05-19T02:00:46.874Z,2.23
2023-05-19T02:03:59.332Z,2.13
2023-05-19T02:06:57.806Z,2.30
2023-05-19T02:10:03.759Z,2.47
2023-05-19T02:12:40.088Z,2.22
2023-05-19T02:15:10.724Z,2.70
2023-05-19T02:17:41.549Z,2.08
2023-05-19T02:20:11.914Z,2.63
2023-05-19T02:22:38.838Z,2.58
2023-05-19T02:25:05.627Z,2.55
2023-05-19T02:27:32.204Z,3.00
2023-05-19T02:29:58.602Z,2.70
2023-05-19T02:32:24.994Z,2.65
2023-05-19T02:34:51.358Z,2.45
2023-05-19T02:37:17.784Z,2.50
2023-05-19T02:39:44.512Z,2.53
2023-05-19T02:42:12.317Z,2.72
2023-05-19T02:44:38.714Z,2.65
2023-05-19T02:47:05.128Z,3.75
2023-05-19T02:49:35.864Z,2.30
2023-05-19T02:52:03.232Z,2.50
2023-05-19T02:54:33.625Z,3.05
2023-05-19T02:57:00.645Z,2.83
2023-05-19T02:59:27.179Z,2.55
2023-05-19T03:01:56.657Z,3.10
2023-05-19T03:04:23.099Z,2.57
2023-05-19T03:06:50.085Z,2.60
2023-05-19T03:09:16.527Z,2.88
2023-05-19T03:11:42.923Z,2.97
2023-05-19T03:14:13.455Z,2.38
2023-05-19T03:16:43.472Z,3.17
2023-05-19T03:19:10.310Z,3.05
2023-05-19T03:21:36.761Z,2.47
2023-05-19T03:24:03.368Z,3.63
2023-05-19T03:26:29.734Z,2.70
2023-05-19T03:28:56.131Z,2.70
2023-05-19T03:31:22.600Z,3.13
2023-05-19T03:33:49.185Z,3.08
2023-05-19T03:36:15.613Z,2.60
2023-05-19T03:38:42.038Z,3.10
2023-05-19T03:41:08.492Z,3.63
2023-05-19T03:43:34.894Z,3.03
2023-05-19T03:46:02.126Z,2.45
2023-05-19T03:48:28.509Z,3.10
2023-05-19T03:50:55.562Z,2.38
2023-05-19T03:53:21.970Z,2.70
2023-05-19T03:55:49.522Z,3.05
2023-05-19T03:58:16.236Z,3.30
2023-05-19T04:00:42.794Z,2.88
2023-05-19T04:03:09.387Z,2.65
2023-05-19T04:05:35.914Z,3.33
2023-05-19T04:08:02.368Z,3.50
2023-05-19T04:10:29.062Z,2.75
2023-05-19T04:12:55.431Z,3.13
2023-05-19T04:15:21.888Z,2.65
2023-05-19T04:17:48.308Z,2.90
2023-05-19T04:20:14.808Z,3.08
2023-05-19T04:22:41.434Z,3.92
2023-05-19T04:25:08.766Z,3.47
2023-05-19T04:27:38.989Z,3.58
2023-05-19T04:30:06.281Z,3.00
2023-05-19T04:32:32.959Z,3.50
2023-05-19T04:34:59.433Z,3.25
2023-05-19T04:37:26.319Z,3.55
2023-05-19T04:39:52.996Z,3.22
2023-05-19T04:42:19.614Z,3.50
2023-05-19T04:44:49.252Z,3.13
2023-05-19T04:47:15.840Z,3.38
2023-05-19T04:49:42.892Z,3.28
2023-05-19T04:52:11.139Z,3.55
2023-05-19T04:54:38.663Z,3.80
2023-05-19T04:57:05.626Z,4.30
2023-05-19T04:59:32.099Z,3.45
2023-05-19T05:01:58.509Z,3.05
2023-05-19T05:04:24.894Z,3.60
2023-05-19T05:06:51.374Z,4.13
2023-05-19T05:09:19.772Z,3.70
2023-05-19T05:11:46.680Z,4.07
2023-05-19T05:14:13.391Z,3.70
2023-05-19T05:16:40.107Z,3.80
2023-05-19T05:19:06.900Z,3.70
2023-05-19T05:21:33.550Z,4.15
2023-05-19T05:24:00.236Z,4.00
2023-05-19T05:26:33.142Z,4.60
2023-05-19T05:28:59.497Z,3.15
2023-05-19T05:31:25.882Z,4.43
2023-05-19T05:33:52.474Z,4.15
2023-05-19T05:36:18.903Z,4.13
2023-05-19T05:38:45.258Z,4.20
2023-05-19T05:41:11.668Z,3.92
2023-05-19T05:43:38.051Z,4.13
2023-05-19T05:46:04.523Z,4.82
2023-05-19T05:48:31.202Z,3.92
2023-05-19T05:50:58.310Z,4.20
2023-05-19T05:53:26.385Z,4.05
2023-05-19T05:55:53.550Z,4.47
2023-05-19T05:58:21.189Z,4.57
2023-05-19T06:00:51.324Z,4.22
2023-05-19T06:03:17.953Z,4.20
2023-05-19T06:05:44.644Z,4.38
2023-05-19T06:08:11.110Z,4.73
2023-05-19T06:10:39.049Z,4.35
2023-05-19T06:13:05.580Z,4.05
2023-05-19T06:15:32.014Z,4.22
2023-05-19T06:17:59.050Z,3.45
2023-05-19T06:20:25.693Z,4.00
2023-05-19T06:22:52.082Z,3.58
2023-05-19T06:25:18.541Z,4.25
2023-05-19T06:27:44.901Z,3.95
2023-05-19T06:30:12.314Z,3.85
2023-05-19T06:32:38.704Z,3.83
2023-05-19T06:35:05.462Z,4.43
2023-05-19T06:37:31.832Z,3.35
2023-05-19T06:39:58.513Z,4.13
2023-05-19T06:42:25.385Z,4.15
2023-05-19T06:44:53.128Z,3.33
2023-05-19T06:47:19.842Z,3.78
2023-05-19T06:49:46.300Z,4.20
2023-05-19T06:52:12.688Z,3.45
2023-05-19T06:54:39.156Z,3.80
2023-05-19T06:57:05.619Z,3.53
2023-05-19T06:59:32.571Z,3.15
2023-05-19T07:01:59.051Z,3.40
2023-05-19T07:04:25.538Z,3.40
2023-05-19T07:06:51.922Z,3.63
2023-05-19T07:09:18.377Z,3.90
2023-05-19T07:11:45.292Z,3.25
2023-05-19T07:14:11.678Z,3.30
2023-05-19T07:16:38.136Z,4.63
2023-05-19T07:19:04.820Z,3.33
2023-05-19T07:21:31.437Z,4.03
2023-05-19T07:23:57.998Z,3.58
2023-05-19T07:26:24.579Z,3.13
2023-05-19T07:28:51.826Z,3.28
2023-05-19T07:31:18.291Z,3.10
2023-05-19T07:33:44.743Z,3.50
2023-05-19T07:36:11.357Z,2.55
2023-05-19T07:38:38.074Z,2.72
2023-05-19T07:41:04.627Z,3.10
2023-05-19T07:43:31.471Z,3.10
2023-05-19T07:45:57.965Z,2.70
2023-05-19T07:48:25.706Z,2.63
2023-05-19T07:50:52.689Z,2.67
2023-05-19T07:53:20.183Z,2.50
2023-05-19T07:55:47.032Z,2.35
2023-05-19T07:58:13.666Z,2.43
2023-05-19T08:00:42.937Z,1.73
2023-05-19T08:03:09.977Z,2.40
2023-05-19T08:05:36.661Z,1.95
2023-05-19T08:08:03.601Z,1.80
2023-05-19T08:10:30.073Z,2.13
2023-05-19T08:12:56.703Z,1.77
2023-05-19T08:15:23.305Z,2.45
2023-05-19T08:17:49.867Z,1.85
2023-05-19T08:20:16.320Z,1.60
2023-05-19T08:22:43.853Z,1.43
2023-05-19T08:25:11.584Z,1.60
2023-05-19T08:27:38.020Z,1.85
2023-05-19T08:30:04.904Z,1.00
2023-05-19T08:32:31.548Z,1.42
2023-05-19T08:34:57.927Z,1.30
2023-05-19T08:37:24.453Z,1.10
2023-05-19T08:39:50.831Z,1.40
2023-05-19T08:42:17.353Z,1.40
2023-05-19T08:44:44.081Z,1.13
2023-05-19T08:47:13.784Z,1.17
2023-05-19T08:49:45.292Z,0.90
2023-05-19T08:52:32.854Z,1.02
2023-05-19T08:55:04.533Z,0.88
2023-05-19T08:57:32.736Z,0.80
2023-05-19T09:00:00.334Z,1.00
2023-05-19T09:02:27.616Z,0.95
2023-05-19T09:04:54.334Z,1.02
2023-05-19T09:07:22.823Z,1.10
2023-05-19T09:09:49.349Z,1.05
2023-05-19T09:12:16.111Z,0.87
2023-05-19T09:14:42.618Z,1.05
2023-05-19T09:17:09.635Z,1.10
2023-05-19T09:19:36.375Z,0.75
2023-05-19T09:22:06.221Z,1.00
2023-05-19T09:24:34.100Z,1.43
2023-05-19T09:27:00.633Z,1.42
2023-05-19T09:29:27.061Z,1.20
2023-05-19T09:31:55.999Z,2.08
2023-05-19T09:34:24.772Z,0.90
2023-05-19T09:36:54.071Z,1.30
2023-05-19T09:39:22.331Z,1.15
2023-05-19T09:41:53.799Z,1.60
2023-05-19T09:44:20.132Z,1.10
2023-05-19T09:46:52.631Z,1.25
2023-05-19T09:49:23.803Z,1.50
2023-05-19T09:51:53.545Z,1.23
2023-05-19T09:54:21.733Z,1.20
2023-05-19T09:57:02.025Z,1.13
2023-05-19T09:59:32.370Z,1.00
2023-05-19T10:02:00.615Z,1.53
2023-05-19T10:04:29.229Z,1.92
2023-05-19T10:07:05.290Z,1.25
2023-05-19T10:09:32.241Z,2.05
2023-05-19T10:11:59.054Z,1.58
2023-05-19T10:14:27.163Z,1.50
2023-05-19T10:16:55.478Z,1.35
2023-05-19T10:19:24.730Z,1.40
2023-05-19T10:21:52.182Z,1.10
2023-05-19T10:24:19.401Z,1.17
2023-05-19T10:26:52.984Z,1.60
2023-05-19T10:29:25.208Z,1.27
2023-05-19T10:31:54.101Z,1.27
2023-05-19T10:34:50.266Z,2.03
2023-05-19T10:37:45.905Z,1.60
2023-05-19T10:40:38.080Z,1.80
2023-05-19T10:43:31.044Z,2.17
2023-05-19T10:45:57.981Z,1.55
2023-05-19T10:48:24.543Z,1.20
2023-05-19T10:50:55.056Z,1.20
2023-05-19T10:53:22.694Z,1.40
2023-05-19T10:55:55.855Z,1.38
2023-05-19T10:58:49.848Z,1.52
2023-05-19T11:01:18.811Z,1.25
2023-05-19T11:03:57.283Z,1.48
2023-05-19T11:06:32.303Z,1.30
2023-05-19T11:09:10.357Z,1.00
2023-05-19T11:11:49.018Z,1.30
2023-05-19T11:14:18.746Z,1.95
2023-05-19T11:16:50.026Z,1.08
2023-05-19T11:19:27.258Z,1.87
2023-05-19T11:21:57.540Z,1.30
2023-05-19T11:24:44.639Z,1.35
2023-05-19T11:27:22.772Z,1.30
2023-05-19T11:29:49.421Z,1.00
2023-05-19T11:32:16.627Z,1.47
2023-05-19T11:34:44.580Z,0.90
2023-05-19T11:37:11.781Z,0.77
2023-05-19T11:39:39.735Z,1.40
2023-05-19T11:42:06.462Z,1.38
2023-05-19T11:44:32.881Z,0.90
2023-05-19T11:47:00.149Z,1.02
2023-05-19T11:49:29.304Z,1.42
2023-05-19T11:51:56.241Z,1.20
2023-05-19T11:54:32.813Z,1.55
2023-05-19T11:57:03.808Z,1.40
2023-05-19T11:59:36.014Z,0.85
2023-05-19T12:02:15.680Z,1.35
2023-05-19T12:04:42.343Z,0.70
2023-05-19T12:07:10.549Z,0.82
2023-05-19T12:09:37.060Z,0.70
2023-05-19T12:12:04.360Z,0.80
2023-05-19T12:14:31.514Z,1.00
2023-05-19T12:16:58.192Z,1.08
2023-05-19T12:19:25.730Z,1.50
2023-05-19T12:21:53.010Z,0.97
2023-05-19T12:24:20.469Z,2.08
2023-05-19T12:26:47.074Z,0.85
2023-05-19T12:29:13.820Z,0.90
2023-05-19T12:31:41.279Z,1.20
2023-05-19T12:34:08.222Z,1.00
2023-05-19T12:36:34.767Z,0.90
2023-05-19T12:39:01.790Z,1.35
2023-05-19T12:41:29.148Z,0.90
2023-05-19T12:43:55.617Z,1.15
2023-05-19T12:46:22.710Z,1.20
2023-05-19T12:48:49.589Z,0.90
2023-05-19T12:51:19.521Z,1.65
2023-05-19T12:53:47.372Z,1.58
2023-05-19T12:56:17.061Z,1.23
2023-05-19T12:58:43.991Z,0.90
2023-05-19T13:01:18.585Z,0.90
2023-05-19T13:03:45.830Z,1.10
2023-05-19T13:06:12.512Z,1.05
2023-05-19T13:08:40.102Z,1.60
2023-05-19T13:11:06.844Z,1.30
2023-05-19T13:13:33.708Z,2.13
2023-05-19T13:16:00.163Z,1.30
2023-05-19T13:18:27.521Z,2.05
2023-05-19T13:20:54.607Z,1.27
2023-05-19T13:23:23.362Z,1.43
2023-05-19T13:25:50.691Z,1.50
2023-05-19T13:28:17.140Z,1.73
2023-05-19T13:30:44.600Z,1.05
2023-05-19T13:33:11.893Z,1.30
2023-05-19T13:35:38.768Z,1.50
2023-05-19T13:38:06.103Z,1.52
2023-05-19T13:40:36.513Z,1.30
2023-05-19T13:43:04.126Z,1.40
2023-05-19T13:45:30.686Z,1.30
2023-05-19T13:47:57.136Z,1.20
2023-05-19T13:50:23.878Z,1.25
2023-05-19T13:52:50.379Z,1.50
2023-05-19T13:55:16.872Z,0.70
2023-05-19T13:57:44.242Z,1.45
2023-05-19T14:00:11.392Z,1.13
2023-05-19T14:02:38.161Z,1.77
2023-05-19T14:05:06.918Z,1.27
2023-05-19T14:07:34.992Z,1.42
2023-05-19T14:10:02.684Z,1.60
2023-05-19T14:12:38.207Z,0.70
2023-05-19T14:15:13.962Z,0.77
2023-05-19T14:17:40.418Z,1.50
2023-05-19T14:20:07.511Z,1.17
2023-05-19T14:22:33.923Z,1.13
2023-05-19T14:27:55.426Z,1.20
2023-05-19T14:30:21.929Z,1.38
2023-05-19T14:32:48.414Z,1.05
2023-05-19T14:35:14.870Z,1.38
2023-05-19T14:37:41.236Z,0.90
2023-05-19T14:40:08.186Z,1.02
2023-05-19T14:42:34.696Z,1.02
2023-05-19T14:45:01.094Z,1.10
2023-05-19T14:47:27.593Z,1.00
2023-05-19T14:49:54.122Z,0.97
2023-05-19T14:52:20.915Z,1.50
2023-05-19T14:54:47.335Z,1.02
2023-05-19T14:57:13.747Z,0.93
2023-05-19T14:59:40.235Z,1.00
2023-05-19T15:02:07.099Z,0.70
2023-05-19T15:04:33.498Z,1.05
2023-05-19T15:07:09.925Z,0.90
2023-05-19T15:09:36.975Z,1.08
2023-05-19T15:12:03.531Z,0.85
2023-05-19T15:14:31.043Z,1.00
2023-05-19T15:16:58.133Z,1.27
2023-05-19T15:19:24.760Z,0.80
2023-05-19T15:21:51.319Z,0.90
2023-05-19T15:24:17.837Z,1.00
2023-05-19T15:26:44.336Z,1.00
2023-05-19T15:29:10.712Z,1.45
2023-05-19T15:31:38.422Z,1.00
2023-05-19T15:34:05.063Z,1.23
2023-05-19T15:36:31.849Z,1.00
2023-05-19T15:38:58.358Z,1.10
2023-05-19T15:41:24.781Z,2.50
2023-05-19T15:43:51.298Z,1.02
2023-05-19T15:46:19.568Z,1.00
2023-05-19T15:48:46.193Z,0.98
2023-05-19T15:51:12.635Z,1.07
2023-05-19T15:53:39.030Z,1.02
2023-05-19T15:56:05.509Z,0.88
2023-05-19T15:58:33.147Z,1.08
2023-05-19T16:01:01.102Z,1.05
2023-05-19T16:03:27.685Z,1.03
2023-05-19T16:05:54.390Z,1.15
2023-05-19T16:08:21.112Z,0.90
2023-05-19T16:10:47.538Z,0.98
2023-05-19T16:13:14.102Z,1.10
2023-05-19T16:15:40.621Z,1.23
2023-05-19T16:18:07.094Z,1.15
2023-05-19T16:20:34.081Z,1.13
2023-05-19T16:23:01.665Z,0.90
2023-05-19T16:25:28.104Z,1.00
2023-05-19T16:27:54.508Z,1.10
2023-05-19T16:30:22.702Z,1.08
2023-05-19T16:32:49.110Z,1.42
2023-05-19T16:35:15.850Z,1.08
2023-05-19T16:37:44.928Z,2.28
2023-05-19T16:40:12.128Z,1.60
2023-05-19T16:42:39.335Z,1.00
2023-05-19T16:45:09.498Z,1.30
2023-05-19T16:47:36.103Z,0.98
2023-05-19T16:50:02.974Z,1.00
2023-05-19T16:52:29.499Z,1.33
2023-05-19T16:54:55.872Z,1.25
2023-05-19T16:57:22.305Z,1.30
2023-05-19T16:59:49.538Z,1.02
2023-05-19T17:02:17.029Z,1.40
2023-05-19T17:04:43.451Z,1.27
2023-05-19T17:07:16.015Z,1.00
2023-05-19T17:09:43.242Z,0.95
2023-05-19T17:12:09.811Z,1.48
2023-05-19T17:14:36.267Z,1.08
2023-05-19T17:17:03.579Z,1.80
2023-05-19T17:19:30.030Z,1.13
2023-05-19T17:21:57.722Z,1.58
2023-05-19T17:24:24.147Z,1.10
2023-05-19T17:26:50.987Z,1.42
2023-05-19T17:29:18.549Z,1.50
2023-05-19T17:31:45.091Z,1.10
2023-05-19T17:34:11.716Z,0.80
2023-05-19T17:36:38.147Z,1.20
2023-05-19T17:39:04.549Z,0.88
2023-05-19T17:41:31.021Z,1.23
2023-05-19T17:43:57.501Z,1.10
2023-05-19T17:46:25.013Z,1.10
2023-05-19T17:48:51.452Z,1.08
2023-05-19T17:51:18.089Z,1.40
2023-05-19T17:53:45.402Z,1.20
2023-05-19T17:56:12.840Z,1.10
2023-05-19T17:58:41.205Z,1.10
2023-05-19T18:01:08.263Z,1.33
2023-05-19T18:03:35.131Z,1.23
2023-05-19T18:06:02.902Z,1.07
2023-05-19T18:08:31.050Z,1.05
2023-05-19T18:10:58.073Z,1.25
2023-05-19T18:13:25.984Z,1.10
2023-05-19T18:15:54.510Z,1.48
2023-05-19T18:18:20.944Z,1.13
2023-05-19T18:20:48.165Z,1.13
2023-05-19T18:23:14.556Z,0.80
2023-05-19T18:25:49.374Z,0.93
2023-05-19T18:28:15.786Z,1.58
2023-05-19T18:30:43.664Z,0.90
2023-05-19T18:33:10.918Z,0.88
2023-05-19T18:35:37.318Z,1.35
2023-05-19T18:38:03.696Z,0.95
2023-05-19T18:40:30.162Z,1.52
2023-05-19T18:42:56.533Z,1.10
2023-05-19T18:45:22.902Z,1.23
2023-05-19T18:47:49.351Z,0.90
2023-05-19T18:50:16.461Z,0.90
2023-05-19T18:52:42.845Z,1.00
2023-05-19T18:55:09.756Z,0.93
2023-05-19T18:57:36.290Z,1.00
2023-05-19T19:00:04.195Z,0.98
2023-05-19T19:02:31.204Z,1.15
2023-05-19T19:04:57.896Z,0.85
2023-05-19T19:07:25.446Z,0.70
2023-05-19T19:09:51.867Z,0.75
2023-05-19T19:12:20.622Z,0.85
2023-05-19T19:14:47.252Z,0.85
2023-05-19T19:17:13.821Z,1.17
2023-05-19T19:19:40.535Z,1.10
2023-05-19T19:22:06.996Z,1.20
2023-05-19T19:24:33.409Z,1.00
2023-05-19T19:26:59.847Z,1.08
2023-05-19T19:29:26.216Z,1.20
2023-05-19T19:31:52.755Z,0.90
2023-05-19T19:34:19.802Z,0.93
2023-05-19T19:36:47.711Z,1.27
2023-05-19T19:39:14.208Z,1.20
2023-05-19T19:41:41.116Z,1.05
2023-05-19T19:44:07.568Z,1.00
2023-05-19T19:46:34.141Z,1.02
2023-05-19T19:49:00.561Z,1.17
2023-05-19T19:51:27.928Z,0.90
2023-05-19T19:53:54.478Z,1.17
2023-05-19T19:56:23.532Z,1.10
2023-05-19T19:58:50.223Z,1.23
2023-05-19T20:01:16.716Z,1.13
2023-05-19T20:03:43.368Z,1.52
2023-05-19T20:06:09.866Z,1.30
2023-05-19T20:08:36.343Z,1.77
2023-05-19T20:11:02.788Z,1.02
2023-05-19T20:13:30.667Z,1.20
2023-05-19T20:15:58.550Z,1.23
2023-05-19T20:18:25.768Z,1.30
2023-05-19T20:20:52.156Z,1.20
2023-05-19T20:23:18.692Z,1.00
2023-05-19T20:26:02.359Z,1.15
2023-05-19T20:28:31.598Z,0.90
2023-05-19T20:30:58.024Z,1.40
2023-05-19T20:33:24.387Z,1.57
2023-05-19T20:35:50.811Z,1.63
2023-05-19T20:38:17.242Z,2.05
2023-05-19T20:40:43.705Z,1.70
2023-05-19T20:43:10.255Z,2.28
2023-05-19T20:45:36.833Z,1.93
2023-05-19T20:48:03.758Z,2.17
2023-05-19T20:50:30.700Z,2.35
2023-05-19T20:52:57.208Z,2.05
2023-05-19T20:55:23.587Z,2.25
2023-05-19T20:57:50.045Z,2.40
2023-05-19T21:00:16.805Z,2.50
2023-05-19T21:02:44.122Z,2.45
2023-05-19T21:05:10.797Z,2.53
2023-05-19T21:07:37.242Z,2.78
2023-05-19T21:10:03.872Z,2.33
2023-05-19T21:12:33.885Z,2.55
2023-05-19T21:15:01.422Z,2.90
2023-05-19T21:17:27.888Z,2.92
2023-05-19T21:19:58.336Z,2.75
2023-05-19T21:22:26.338Z,2.57
2023-05-19T21:24:53.455Z,2.15
2023-05-19T21:27:21.022Z,2.70
2023-05-19T21:29:50.430Z,3.15
2023-05-19T21:32:16.814Z,2.60
2023-05-19T21:34:43.295Z,3.00
2023-05-19T21:37:09.741Z,2.92
2023-05-19T21:39:36.337Z,2.80
2023-05-19T21:42:03.167Z,2.95
2023-05-19T21:44:31.103Z,2.78
2023-05-19T21:46:57.997Z,2.30
2023-05-19T21:49:24.450Z,2.22
2023-05-19T21:51:50.976Z,2.15
2023-05-19T21:54:17.381Z,2.90
2023-05-19T21:56:43.811Z,2.30
2023-05-19T21:59:11.952Z,2.57
2023-05-19T22:01:38.518Z,2.22
2023-05-19T22:04:05.224Z,2.42
2023-05-19T22:06:36.272Z,2.45
2023-05-19T22:09:02.751Z,2.95
2023-05-19T22:11:29.160Z,1.97
2023-05-19T22:13:55.771Z,2.42
2023-05-19T22:16:22.284Z,2.45
2023-05-19T22:18:48.781Z,2.40
2023-05-19T22:21:15.164Z,2.35
2023-05-19T22:23:46.643Z,2.10
2023-05-19T22:26:13.303Z,2.15
2023-05-19T22:28:39.884Z,2.35
2023-05-19T22:31:06.372Z,2.25
2023-05-19T22:33:33.219Z,2.53
2023-05-19T22:35:59.582Z,2.63
2023-05-19T22:38:26.335Z,2.47
2023-05-19T22:40:52.821Z,2.88
2023-05-19T22:43:19.195Z,2.40
2023-05-19T22:45:46.121Z,2.38
2023-05-19T22:48:12.666Z,2.40
2023-05-19T22:50:39.063Z,2.20
2023-05-19T22:53:05.493Z,2.30
2023-05-19T22:55:32.284Z,2.40
2023-05-19T22:58:00.045Z,2.67
2023-05-19T23:00:26.486Z,2.03
2023-05-19T23:02:52.960Z,2.20
2023-05-19T23:05:19.550Z,2.20
2023-05-19T23:07:45.922Z,2.10
2023-05-19T23:10:12.384Z,2.17
2023-05-19T23:12:40.731Z,1.93
2023-05-19T23:15:09.432Z,2.22
2023-05-19T23:17:36.116Z,2.05
2023-05-19T23:20:02.752Z,2.13
2023-05-19T23:22:29.383Z,2.05
2023-05-19T23:24:56.000Z,2.20
2023-05-19T23:27:22.563Z,2.10
2023-05-19T23:29:50.735Z,2.40
2023-05-19T23:32:17.125Z,2.55
2023-05-19T23:34:43.605Z,2.50
2023-05-19T23:37:10.053Z,2.33
2023-05-19T23:39:38.180Z,2.00
2023-05-19T23:42:05.712Z,2.60
2023-05-19T23:44:32.241Z,2.95
2023-05-19T23:46:58.740Z,2.72
2023-05-19T23:49:25.476Z,2.83
2023-05-19T23:51:51.942Z,2.58
2023-05-19T23:54:18.398Z,2.40
2023-05-19T23:56:56.196Z,2.63
2023-05-19T23:59:22.702Z,2.42
